Ana Sayfa
METAR-TAF:

METAR-TAF

Havaalanları :

Pitt-Greenville Airport

Greenville, Kuzey Carolina, Amerika Birleşik Devletleri

Enlem: 35-38N, Boylam: 077-24W, yükseklik: 8 m

Güncel hava durumu gözlemi

Rapor saat 23:10 UTC de 18 dakika önce yapıldı.
Rüzgar batıdan 3 kt
Sıcaklık 32°C
Nem 43%
Basınç 1015 hPa
Görüş mesafesi: 16.1 km
Açık gökyüzü

METAR: KPGV 262310Z AUTO 27003KT 10SM CLR 32/18 A2998 RMK AO2

Saat: 19:28 (23:28 UTC)

Tahmin

Rapor saat 17:20 UTC de 6 saat ve 8 dakika önce yapıldı.
Ayın 26'si saat 18 UTC'den ayın 27'si saat 18 UTC'ye kadar geçerli Tahmin
Rüzgar batıdan 7 kt
Görüş mesafesi: 10 km
5000 ft yükseklikte az bulutlu
Ayın 27'si saat 1400 UTC'den
Rüzgar kuzeybatıdan 8 kt
Görüş mesafesi: 10 km
4000 ft yükseklikte az bulutlu

TAF: KPGV 261720Z 2618/2718 26007KT P6SM FEW050 FM271400 31008KT P6SM FEW040 AMD LTD TO CLD VIS AND WIND

4.000'den fazla havaalanı için hava durumu gözlemleri ve tahminleri (METAR ve TAF raporları).

Kullanılabilir istasyonlar harita üzerinde sarı ve kırmızı noktalarla gösterilir.

İstasyonun adını görmek için fareyi noktanın üzerinde gezdirin.

Sonrasında hava gözlem ve tahminlerini görmek için tıklayın.

Haritayı değiştirmek için: yaklaştırmak için siyah artı işaretli yeşil düğmeye ve uzaklaştırmak için de eksi işaretli düğmeye hızla tıklayın; bitişik haritalar için yeşil okları kullanın.


METAR-TAF: